createdAt,value
2023-03-26T00:01:15.852Z,99834.25
2023-03-26T00:03:45.230Z,99837.34
2023-03-26T00:06:13.943Z,99836.75
2023-03-26T00:08:42.735Z,99846.06
2023-03-26T00:11:11.846Z,99840.34
2023-03-26T00:13:39.407Z,99846.81
2023-03-26T00:16:06.691Z,99847.25
2023-03-26T00:18:35.188Z,99845.25
2023-03-26T00:21:05.676Z,99847.75
2023-03-26T00:23:35.345Z,99853.59
2023-03-26T00:26:04.214Z,99853.97
2023-03-26T00:28:31.120Z,99853.25
2023-03-26T00:31:00.791Z,99863.63
2023-03-26T00:33:28.365Z,99869.19
2023-03-26T00:35:59.017Z,99869.19
2023-03-26T00:38:27.832Z,99872.75
2023-03-26T00:40:56.550Z,99868.69
2023-03-26T00:43:23.852Z,99877.41
2023-03-26T00:45:57.589Z,99875.44
2023-03-26T00:48:34.334Z,99878.88
2023-03-26T00:51:11.179Z,99885.81
2023-03-26T00:53:39.130Z,99883.09
2023-03-26T00:56:07.250Z,99890.84
2023-03-26T00:58:34.223Z,99882.03
2023-03-26T01:01:03.851Z,99885.84
2023-03-26T01:03:35.625Z,99896.34
2023-03-26T01:06:08.181Z,99895.50
2023-03-26T01:08:50.922Z,99896.69
2023-03-26T01:11:24.040Z,99897.16
2023-03-26T01:14:01.772Z,99899.69
2023-03-26T01:16:45.097Z,99898.69
2023-03-26T01:19:40.306Z,99906.25
2023-03-26T01:22:12.251Z,99906.72
2023-03-26T01:24:40.126Z,99909.47
2023-03-26T01:27:25.973Z,99919.25
2023-03-26T01:29:58.940Z,99920.06
2023-03-26T01:32:44.414Z,99927.25
2023-03-26T01:35:40.657Z,99930.34
2023-03-26T01:38:28.831Z,99929.88
2023-03-26T01:41:06.768Z,99933.34
2023-03-26T01:43:45.422Z,99942.56
2023-03-26T01:46:15.050Z,99939.31
2023-03-26T01:48:44.939Z,99947.91
2023-03-26T01:51:13.258Z,99957.59
2023-03-26T01:53:48.224Z,99955.31
2023-03-26T01:56:36.082Z,99947.53
2023-03-26T01:59:03.082Z,99960.44
2023-03-26T02:01:37.054Z,99960.22
2023-03-26T02:04:29.773Z,99964.25
2023-03-26T02:07:21.143Z,99971.19
2023-03-26T02:09:53.438Z,99972.09
2023-03-26T02:12:22.915Z,99977.16
2023-03-26T02:14:50.488Z,99978.72
2023-03-26T02:17:19.226Z,99980.78
2023-03-26T02:19:46.039Z,99981.59
2023-03-26T02:22:15.827Z,99982.44
2023-03-26T02:24:43.991Z,99985.56
2023-03-26T02:27:12.445Z,99989.13
2023-03-26T02:29:40.319Z,100000.38
2023-03-26T02:32:13.474Z,100001.09
2023-03-26T02:34:41.178Z,100000.97
2023-03-26T02:37:08.099Z,100009.22
2023-03-26T02:39:35.280Z,100015.91
2023-03-26T02:42:02.090Z,100018.28
2023-03-26T02:44:28.891Z,100017.81
2023-03-26T02:46:55.801Z,100017.34
2023-03-26T02:49:22.555Z,100017.81
2023-03-26T02:51:49.264Z,100027.16
2023-03-26T02:54:16.917Z,100039.56
2023-03-26T02:56:43.647Z,100043.72
2023-03-26T02:59:10.927Z,100052.47
2023-03-26T03:01:42.983Z,100054.38
2023-03-26T03:04:13.354Z,100052.56
2023-03-26T03:06:40.671Z,100059.63
2023-03-26T03:09:09.203Z,100060.84
2023-03-26T03:11:36.844Z,100068.72
2023-03-26T03:14:04.259Z,100064.78
2023-03-26T03:16:31.462Z,100066.81
2023-03-26T03:18:58.513Z,100075.03
2023-03-26T03:21:28.019Z,100075.16
2023-03-26T03:23:59.918Z,100080.19
2023-03-26T03:26:29.830Z,100079.72
2023-03-26T03:28:58.239Z,100090.66
2023-03-26T03:31:26.740Z,100090.91
2023-03-26T03:33:53.489Z,100092.81
2023-03-26T03:36:23.830Z,100087.22
2023-03-26T03:38:51.320Z,100102.38
2023-03-26T03:41:18.819Z,100110.00
2023-03-26T03:43:46.331Z,100097.34
2023-03-26T03:46:13.185Z,100108.06
2023-03-26T03:48:40.796Z,100113.31
2023-03-26T03:51:07.727Z,100099.66
2023-03-26T03:53:37.316Z,100122.16
2023-03-26T03:56:10.249Z,100121.69
2023-03-26T03:58:37.575Z,100127.41
2023-03-26T04:01:04.762Z,100135.16
2023-03-26T04:03:34.301Z,100137.69
2023-03-26T04:06:01.583Z,100142.41
2023-03-26T04:08:28.334Z,100148.09
2023-03-26T04:10:55.322Z,100152.41
2023-03-26T04:13:22.237Z,100158.00
2023-03-26T04:15:49.242Z,100161.31
2023-03-26T04:18:16.074Z,100162.94
2023-03-26T04:20:47.728Z,100165.25
2023-03-26T04:23:15.805Z,100174.94
2023-03-26T04:25:48.550Z,100178.75
2023-03-26T04:28:30.571Z,100186.13
2023-03-26T04:31:00.999Z,100201.16
2023-03-26T04:33:33.841Z,100199.47
2023-03-26T04:36:04.383Z,100212.22
2023-03-26T04:38:37.500Z,100208.81
2023-03-26T04:41:07.796Z,100220.59
2023-03-26T04:43:35.702Z,100218.16
2023-03-26T04:46:05.439Z,100227.28
2023-03-26T04:48:32.211Z,100228.47
2023-03-26T04:50:59.086Z,100235.38
2023-03-26T04:53:26.079Z,100246.19
2023-03-26T04:55:57.324Z,100254.78
2023-03-26T04:58:30.300Z,100258.47
2023-03-26T05:00:57.513Z,100258.56
2023-03-26T05:03:25.812Z,100270.63
2023-03-26T05:05:52.916Z,100273.88
2023-03-26T05:08:19.906Z,100284.16
2023-03-26T05:10:46.637Z,100287.75
2023-03-26T05:13:13.399Z,100298.81
2023-03-26T05:15:40.873Z,100300.91
2023-03-26T05:18:09.027Z,100297.94
2023-03-26T05:20:36.101Z,100318.91
2023-03-26T05:23:03.034Z,100332.81
2023-03-26T05:25:29.907Z,100340.22
2023-03-26T05:27:56.668Z,100346.41
2023-03-26T05:30:23.520Z,100354.31
2023-03-26T05:32:50.488Z,100353.03
2023-03-26T05:35:18.455Z,100357.06
2023-03-26T05:37:46.739Z,100369.88
2023-03-26T05:40:17.272Z,100373.53
2023-03-26T05:42:44.433Z,100380.72
2023-03-26T05:45:13.969Z,100383.13
2023-03-26T05:47:41.270Z,100391.84
2023-03-26T05:50:09.695Z,100394.53
2023-03-26T05:52:36.670Z,100406.34
2023-03-26T05:55:03.950Z,100411.03
2023-03-26T05:57:31.301Z,100420.53
2023-03-26T05:59:58.129Z,100427.00
2023-03-26T06:02:25.130Z,100433.63
2023-03-26T06:04:52.713Z,100446.31
2023-03-26T06:07:20.228Z,100446.31
2023-03-26T06:09:47.056Z,100454.38
2023-03-26T06:12:14.314Z,100459.13
2023-03-26T06:14:43.046Z,100471.75
2023-03-26T06:17:10.842Z,100474.03
2023-03-26T06:19:38.043Z,100484.97
2023-03-26T06:22:05.574Z,100494.50
2023-03-26T06:24:33.352Z,100511.25
2023-03-26T06:27:00.115Z,100516.72
2023-03-26T06:29:27.204Z,100526.72
2023-03-26T06:31:54.086Z,100541.59
2023-03-26T06:34:21.023Z,100551.16
2023-03-26T06:36:48.971Z,100552.34
2023-03-26T06:39:16.376Z,100562.53
2023-03-26T06:41:43.113Z,100560.56
2023-03-26T06:44:10.113Z,100573.53
2023-03-26T06:46:37.322Z,100583.19
2023-03-26T06:49:04.297Z,100580.78
2023-03-26T06:51:31.106Z,100584.72
2023-03-26T06:53:58.172Z,100592.97
2023-03-26T06:56:24.905Z,100593.25
2023-03-26T06:58:51.666Z,100615.03
2023-03-26T07:01:18.441Z,100612.50
2023-03-26T07:03:45.247Z,100617.09
2023-03-26T07:06:12.099Z,100612.78
2023-03-26T07:08:38.912Z,100624.22
2023-03-26T07:11:06.125Z,100633.28
2023-03-26T07:13:32.876Z,100635.25
2023-03-26T07:15:59.582Z,100643.16
2023-03-26T07:18:26.383Z,100654.63
2023-03-26T07:20:53.756Z,100664.84
2023-03-26T07:23:21.444Z,100661.53
2023-03-26T07:25:48.775Z,100664.31
2023-03-26T07:28:37.471Z,100677.22
2023-03-26T07:31:21.212Z,100693.97
2023-03-26T07:34:02.282Z,100707.00
2023-03-26T07:36:36.742Z,100728.47
2023-03-26T07:39:19.820Z,100733.78
2023-03-26T07:41:56.048Z,100739.22
2023-03-26T07:44:32.676Z,100754.06
2023-03-26T07:47:04.865Z,100756.66
2023-03-26T07:49:31.681Z,100770.47
2023-03-26T07:51:58.984Z,100780.66
2023-03-26T07:54:26.113Z,100791.63
2023-03-26T07:57:02.065Z,100795.00
2023-03-26T07:59:45.246Z,100801.47
2023-03-26T08:02:50.692Z,100808.59
2023-03-26T08:05:26.235Z,100812.81
2023-03-26T08:08:22.060Z,100822.81
2023-03-26T08:11:11.565Z,100830.41
2023-03-26T08:13:57.258Z,100834.28
2023-03-26T08:16:40.049Z,100849.84
2023-03-26T08:19:12.947Z,100854.94
2023-03-26T08:21:51.058Z,100863.88
2023-03-26T08:24:26.318Z,100856.44
2023-03-26T08:27:13.991Z,100862.09
2023-03-26T08:29:50.101Z,100869.97
2023-03-26T08:32:19.069Z,100871.81
2023-03-26T08:34:46.613Z,100887.66
2023-03-26T08:37:13.508Z,100898.91
2023-03-26T08:39:42.198Z,100894.09
2023-03-26T08:42:17.725Z,100898.13
2023-03-26T08:45:12.167Z,100912.22
2023-03-26T08:48:05.586Z,100918.78
2023-03-26T08:50:59.781Z,100928.22
2023-03-26T08:53:38.433Z,100935.66
2023-03-26T08:56:20.693Z,100939.38
2023-03-26T08:59:12.196Z,100950.31
2023-03-26T09:01:38.901Z,100964.19
2023-03-26T09:04:40.936Z,100961.50
2023-03-26T09:07:13.515Z,100971.00
2023-03-26T09:09:52.466Z,100981.53
2023-03-26T09:12:23.728Z,100987.53
2023-03-26T09:15:26.402Z,100996.06
2023-03-26T09:18:21.954Z,100996.34
2023-03-26T09:20:55.223Z,101013.63
2023-03-26T09:23:40.317Z,101010.88
2023-03-26T09:26:39.315Z,101025.34
2023-03-26T09:29:43.589Z,101025.97
2023-03-26T09:32:32.016Z,101038.38
2023-03-26T09:35:29.746Z,101051.53
2023-03-26T09:38:11.428Z,101047.78
2023-03-26T09:40:45.295Z,101041.97
2023-03-26T09:43:24.253Z,101061.59
2023-03-26T09:46:13.524Z,101068.41
2023-03-26T09:49:05.752Z,101080.28
2023-03-26T09:51:41.628Z,101085.16
2023-03-26T09:54:39.477Z,101091.38
2023-03-26T09:57:53.858Z,101103.88
2023-03-26T10:00:43.955Z,101109.56
2023-03-26T10:03:49.020Z,101123.66
2023-03-26T10:06:34.224Z,101132.56
2023-03-26T10:09:26.368Z,101139.19
2023-03-26T10:12:02.108Z,101150.41
2023-03-26T10:15:08.703Z,101151.72
2023-03-26T10:18:27.005Z,101159.44
2023-03-26T10:21:02.973Z,101175.44
2023-03-26T10:23:57.446Z,101179.47
2023-03-26T10:27:09.815Z,101187.19
2023-03-26T10:30:10.484Z,101196.69
2023-03-26T10:32:58.351Z,101200.00
2023-03-26T10:35:32.361Z,101197.91
2023-03-26T10:38:34.598Z,101203.09
2023-03-26T10:41:33.697Z,101211.53
2023-03-26T10:44:22.046Z,101213.53
2023-03-26T10:47:31.512Z,101225.06
2023-03-26T10:50:23.598Z,101232.03
2023-03-26T10:53:20.184Z,101238.09
2023-03-26T10:55:54.863Z,101246.81
2023-03-26T10:58:48.607Z,101259.81
2023-03-26T11:01:45.015Z,101271.47
2023-03-26T11:04:50.031Z,101275.38
2023-03-26T11:07:39.702Z,101294.25
2023-03-26T11:10:35.761Z,101303.13
2023-03-26T11:13:39.984Z,101298.94
2023-03-26T11:16:25.960Z,101307.06
2023-03-26T11:18:59.896Z,101303.47
2023-03-26T11:21:31.974Z,101314.63
2023-03-26T11:24:11.506Z,101317.06
2023-03-26T11:26:50.480Z,101329.22
2023-03-26T11:29:36.451Z,101326.69
2023-03-26T11:32:15.716Z,101323.56
2023-03-26T11:34:58.428Z,101336.72
2023-03-26T11:37:46.511Z,101342.63
2023-03-26T11:40:32.174Z,101345.41
2023-03-26T11:43:05.115Z,101352.91
2023-03-26T11:45:37.418Z,101361.78
2023-03-26T11:48:04.231Z,101367.09
2023-03-26T11:50:35.963Z,101367.09
2023-03-26T11:53:17.922Z,101373.22
2023-03-26T11:55:50.499Z,101364.50
2023-03-26T11:58:31.329Z,101367.81
2023-03-26T12:00:59.220Z,101376.56
2023-03-26T12:03:26.048Z,101380.94
2023-03-26T12:05:59.408Z,101379.19
2023-03-26T12:08:34.932Z,101382.94
2023-03-26T12:11:09.056Z,101397.22
2023-03-26T12:13:42.036Z,101399.41
2023-03-26T12:16:18.848Z,101408.63
2023-03-26T12:18:47.625Z,101400.38
2023-03-26T12:21:19.495Z,101409.97
2023-03-26T12:24:05.245Z,101412.84
2023-03-26T12:26:34.839Z,101404.72
2023-03-26T12:29:17.221Z,101413.31
2023-03-26T12:31:56.267Z,101412.00
2023-03-26T12:34:43.399Z,101427.31
2023-03-26T12:37:41.885Z,101431.69
2023-03-26T12:40:35.990Z,101447.38
2023-03-26T12:44:50.338Z,101451.09
2023-03-26T12:48:01.349Z,101461.81
2023-03-26T12:49:19.159Z,101464.88
2023-03-26T12:51:58.958Z,101479.59
2023-03-26T12:54:49.866Z,101481.03
2023-03-26T12:57:22.521Z,101478.63
2023-03-26T13:00:20.290Z,101480.91
2023-03-26T13:03:09.052Z,101481.66
2023-03-26T13:05:54.717Z,101493.16
2023-03-26T13:08:50.911Z,101484.75
2023-03-26T13:11:38.669Z,101489.56
2023-03-26T13:14:11.228Z,101489.56
2023-03-26T13:16:47.890Z,101496.81
2023-03-26T13:19:24.947Z,101495.81
2023-03-26T13:22:09.931Z,101487.25
2023-03-26T13:24:54.923Z,101500.84
2023-03-26T13:27:36.926Z,101495.00
2023-03-26T13:30:31.325Z,101495.66
2023-03-26T13:32:58.995Z,101501.97
2023-03-26T13:35:50.005Z,101503.97
2023-03-26T13:38:58.975Z,101508.63
2023-03-26T13:41:36.452Z,101519.81
2023-03-26T13:44:03.224Z,101523.59
2023-03-26T13:46:38.503Z,101517.66
2023-03-26T13:49:08.078Z,101515.31
2023-03-26T13:51:40.794Z,101524.16
2023-03-26T13:54:32.729Z,101525.41
2023-03-26T13:57:12.655Z,101533.78
2023-03-26T13:59:47.521Z,101546.03
2023-03-26T14:02:41.729Z,101539.03
2023-03-26T14:05:31.894Z,101540.19
2023-03-26T14:08:12.104Z,101544.16
2023-03-26T14:10:47.678Z,101524.94
2023-03-26T14:13:27.189Z,101520.03
2023-03-26T14:15:59.285Z,101532.59
2023-03-26T14:18:32.064Z,101524.56
2023-03-26T14:21:17.762Z,101526.06
2023-03-26T14:23:53.718Z,101530.97
2023-03-26T14:26:51.918Z,101527.56
2023-03-26T14:29:57.507Z,101534.84
2023-03-26T14:32:30.908Z,101533.13
2023-03-26T14:35:20.422Z,101527.13
2023-03-26T14:38:06.315Z,101527.22
2023-03-26T14:40:58.758Z,101524.59
2023-03-26T14:44:10.225Z,101529.97
2023-03-26T14:47:00.068Z,101543.97
2023-03-26T14:49:29.631Z,101539.59
2023-03-26T14:52:22.764Z,101553.16
2023-03-26T14:54:53.426Z,101547.03
2023-03-26T14:57:28.907Z,101564.81
2023-03-26T15:00:16.776Z,101569.22
2023-03-26T15:03:08.936Z,101556.00
2023-03-26T15:05:54.101Z,101561.03
2023-03-26T15:08:39.261Z,101577.28
2023-03-26T15:11:39.468Z,101582.50
2023-03-26T15:14:41.660Z,101597.72
2023-03-26T15:17:09.681Z,101611.91
2023-03-26T15:20:32.739Z,101610.41
2023-03-26T15:23:24.152Z,101600.91
2023-03-26T15:25:51.576Z,101610.16
2023-03-26T15:28:39.839Z,101622.03
2023-03-26T15:31:31.868Z,101633.69
2023-03-26T15:34:04.504Z,101640.31
2023-03-26T15:36:53.329Z,101639.81
2023-03-26T15:39:38.333Z,101643.94
2023-03-26T15:42:15.588Z,101645.81
2023-03-26T15:44:54.525Z,101654.13
2023-03-26T15:48:03.177Z,101657.13
2023-03-26T15:51:15.740Z,101655.44
2023-03-26T15:53:54.818Z,101655.81
2023-03-26T15:57:03.251Z,101661.44
2023-03-26T15:59:59.270Z,101672.53
2023-03-26T16:02:58.493Z,101667.56
2023-03-26T16:05:47.607Z,101680.06
2023-03-26T16:08:23.462Z,101688.53
2023-03-26T16:10:57.818Z,101691.28
2023-03-26T16:13:37.806Z,101688.44
2023-03-26T16:16:04.639Z,101695.63
2023-03-26T16:18:54.933Z,101692.28
2023-03-26T16:21:32.638Z,101695.59
2023-03-26T16:24:02.599Z,101699.84
2023-03-26T16:26:44.778Z,101705.88
2023-03-26T16:29:14.692Z,101700.69
2023-03-26T16:31:56.762Z,101706.16
2023-03-26T16:34:39.397Z,101699.72
2023-03-26T16:37:37.913Z,101701.66
2023-03-26T16:40:16.820Z,101726.78
2023-03-26T16:42:58.484Z,101722.25
2023-03-26T16:45:34.892Z,101721.72
2023-03-26T16:48:33.947Z,101721.91
2023-03-26T16:51:17.286Z,101725.31
2023-03-26T16:54:29.328Z,101720.31
2023-03-26T16:57:24.881Z,101724.56
2023-03-26T17:00:07.564Z,101724.44
2023-03-26T17:02:54.008Z,101715.16
2023-03-26T17:05:36.805Z,101720.44
2023-03-26T17:08:16.564Z,101728.97
2023-03-26T17:11:02.044Z,101735.38
2023-03-26T17:13:37.741Z,101737.06
2023-03-26T17:16:25.652Z,101742.34
2023-03-26T17:19:16.868Z,101740.44
2023-03-26T17:21:55.624Z,101747.91
2023-03-26T17:24:54.612Z,101755.25
2023-03-26T17:27:50.107Z,101769.88
2023-03-26T17:30:57.689Z,101769.03
2023-03-26T17:33:35.258Z,101778.47
2023-03-26T17:36:24.225Z,101772.78
2023-03-26T17:38:51.178Z,101782.13
2023-03-26T17:41:55.522Z,101785.00
2023-03-26T17:44:41.458Z,101797.16
2023-03-26T17:47:20.737Z,101804.19
2023-03-26T17:49:51.345Z,101807.63
2023-03-26T17:52:21.304Z,101810.56
2023-03-26T17:54:51.391Z,101819.50
2023-03-26T17:57:26.498Z,101822.56
2023-03-26T17:59:59.031Z,101828.38
2023-03-26T18:02:42.227Z,101834.75
2023-03-26T18:05:15.374Z,101841.34
2023-03-26T18:08:00.136Z,101847.69
2023-03-26T18:10:38.931Z,101852.72
2023-03-26T18:13:15.822Z,101846.09
2023-03-26T18:16:13.397Z,101846.22
2023-03-26T18:19:01.061Z,101848.47
2023-03-26T18:21:37.407Z,101858.66
2023-03-26T18:24:07.729Z,101862.75
2023-03-26T18:26:41.721Z,101867.31
2023-03-26T18:29:24.073Z,101873.41
2023-03-26T18:32:23.774Z,101882.38
2023-03-26T18:34:58.830Z,101888.13
2023-03-26T18:37:30.136Z,101889.53
2023-03-26T18:40:14.650Z,101887.03
2023-03-26T18:42:47.938Z,101891.16
2023-03-26T18:45:32.649Z,101885.34
2023-03-26T18:48:07.155Z,101889.19
2023-03-26T18:50:37.342Z,101899.41
2023-03-26T18:53:07.349Z,101900.44
2023-03-26T18:55:39.692Z,101911.19
2023-03-26T18:58:32.927Z,101911.88
2023-03-26T19:01:04.014Z,101914.00
2023-03-26T19:04:04.079Z,101927.91
2023-03-26T19:06:38.362Z,101931.16
2023-03-26T19:09:11.317Z,101930.69
2023-03-26T19:11:49.211Z,101935.09
2023-03-26T19:14:18.607Z,101940.66
2023-03-26T19:16:49.782Z,101950.41
2023-03-26T19:19:20.574Z,101957.63
2023-03-26T19:21:48.900Z,101963.56
2023-03-26T19:24:18.011Z,101965.63
2023-03-26T19:26:45.464Z,101977.97
2023-03-26T19:29:19.807Z,101991.75
2023-03-26T19:31:52.596Z,101984.00
2023-03-26T19:34:35.053Z,101996.75
2023-03-26T19:37:04.443Z,101992.22
2023-03-26T19:39:42.753Z,101999.25
2023-03-26T19:42:26.887Z,102005.94
2023-03-26T19:45:16.713Z,102007.59
2023-03-26T19:47:52.151Z,102005.78
2023-03-26T19:50:27.874Z,102008.56
2023-03-26T19:53:16.906Z,102014.25
2023-03-26T19:56:18.872Z,102017.53
2023-03-26T19:58:45.947Z,102023.94
2023-03-26T20:01:21.802Z,102017.59
2023-03-26T20:03:52.799Z,102025.66
2023-03-26T20:06:28.102Z,102032.03
2023-03-26T20:09:01.238Z,102026.66
2023-03-26T20:11:36.737Z,102026.69
2023-03-26T20:14:12.909Z,102036.50
2023-03-26T20:16:40.648Z,102031.75
2023-03-26T20:19:08.910Z,102028.81
2023-03-26T20:21:38.147Z,102037.22
2023-03-26T20:24:17.285Z,102040.81
2023-03-26T20:26:45.833Z,102042.66
2023-03-26T20:29:13.263Z,102048.03
2023-03-26T20:31:44.006Z,102046.19
2023-03-26T20:34:23.532Z,102049.38
2023-03-26T20:36:55.391Z,102048.75
2023-03-26T20:39:24.514Z,102053.00
2023-03-26T20:41:52.939Z,102058.66
2023-03-26T20:44:21.255Z,102056.09
2023-03-26T20:46:49.609Z,102063.91
2023-03-26T20:49:17.876Z,102061.34
2023-03-26T20:51:45.788Z,102066.81
2023-03-26T20:54:19.127Z,102058.69
2023-03-26T20:56:47.865Z,102073.44
2023-03-26T20:59:21.875Z,102064.91
2023-03-26T21:01:50.167Z,102073.97
2023-03-26T21:04:17.923Z,102063.72
2023-03-26T21:06:45.334Z,102069.97
2023-03-26T21:09:23.814Z,102074.47
2023-03-26T21:12:08.338Z,102078.38
2023-03-26T21:14:43.550Z,102080.66
2023-03-26T21:17:19.517Z,102083.66
2023-03-26T21:19:47.321Z,102080.03
2023-03-26T21:22:29.006Z,102092.81
2023-03-26T21:24:58.629Z,102098.50
2023-03-26T21:28:01.894Z,102092.38
2023-03-26T21:30:28.961Z,102088.25
2023-03-26T21:32:55.800Z,102099.63
2023-03-26T21:35:23.165Z,102095.22
2023-03-26T21:37:50.816Z,102110.69
2023-03-26T21:40:19.187Z,102110.34
2023-03-26T21:42:50.009Z,102120.50
2023-03-26T21:45:17.623Z,102121.97
2023-03-26T21:47:46.074Z,102124.19
2023-03-26T21:50:16.120Z,102121.44
2023-03-26T21:52:52.001Z,102132.00
2023-03-26T21:55:21.651Z,102131.88
2023-03-26T21:58:15.912Z,102133.75
2023-03-26T22:01:06.439Z,102126.19
2023-03-26T22:03:45.204Z,102136.47
2023-03-26T22:06:31.460Z,102136.13
2023-03-26T22:08:59.624Z,102145.31
2023-03-26T22:11:26.455Z,102141.91
2023-03-26T22:13:53.357Z,102134.50
2023-03-26T22:16:25.241Z,102145.72
2023-03-26T22:18:53.912Z,102138.66
2023-03-26T22:21:20.807Z,102156.91
2023-03-26T22:23:52.804Z,102158.75
2023-03-26T22:26:24.386Z,102164.47
2023-03-26T22:28:51.878Z,102173.97
2023-03-26T22:31:18.911Z,102182.94
2023-03-26T22:33:45.760Z,102182.94
2023-03-26T22:36:22.118Z,102196.94
2023-03-26T22:38:53.304Z,102188.19
2023-03-26T22:41:20.845Z,102196.84
2023-03-26T22:43:47.736Z,102196.25
2023-03-26T22:46:14.573Z,102198.66
2023-03-26T22:48:41.307Z,102198.38
2023-03-26T22:51:10.382Z,102212.88
2023-03-26T22:53:37.732Z,102196.00
2023-03-26T22:56:04.871Z,102201.25
2023-03-26T22:58:34.023Z,102206.50
2023-03-26T23:01:08.407Z,102201.66
2023-03-26T23:03:37.215Z,102208.81
2023-03-26T23:06:07.092Z,102212.69
2023-03-26T23:08:35.300Z,102220.44
2023-03-26T23:11:02.171Z,102221.34
2023-03-26T23:13:28.896Z,102226.38
2023-03-26T23:15:57.306Z,102218.97
2023-03-26T23:18:24.500Z,102206.69
2023-03-26T23:20:56.696Z,102220.16
2023-03-26T23:23:28.038Z,102221.09
2023-03-26T23:26:00.706Z,102216.63
2023-03-26T23:28:35.006Z,102220.25
2023-03-26T23:31:04.624Z,102214.84
2023-03-26T23:33:35.440Z,102219.47
2023-03-26T23:36:08.886Z,102212.88
2023-03-26T23:38:43.640Z,102211.50
2023-03-26T23:41:15.335Z,102222.38
2023-03-26T23:43:55.501Z,102211.94
2023-03-26T23:46:25.017Z,102218.16
2023-03-26T23:48:52.334Z,102217.50
2023-03-26T23:51:24.205Z,102219.34
2023-03-26T23:53:52.688Z,102215.53
2023-03-26T23:56:19.497Z,102212.44
2023-03-26T23:58:46.245Z,102214.53
